Time;durP1;ratioP1;P1;durP2;ratioP2;P2;SDS_P1;SDS_P2;PMS_P1;PMS_P2;Temp;Humidity;BMP_temperature;BMP_pressure;BME280_temperature;BME280_humidity;BME280_pressure;Samples;Min_cycle;Max_cycle;Signal;HPM_P1;HPM_P2
2023/05/10 00:00:10;;;;;;;10.77;9.07;;;15.50;99.90;;;;;;6231181;22;20179;-65
2023/05/10 00:02:37;;;;;;;11.48;9.23;;;15.50;99.90;;;;;;6235985;22;20636;-65
2023/05/10 00:05:04;;;;;;;9.82;8.50;;;15.40;99.90;;;;;;6251658;22;20178;-65
2023/05/10 00:07:30;;;;;;;11.60;8.55;;;15.50;99.90;;;;;;6230260;22;20176;-65
2023/05/10 00:09:59;;;;;;;11.02;8.45;;;15.40;99.90;;;;;;6241991;22;20179;-65
2023/05/10 00:12:25;;;;;;;10.68;9.05;;;15.40;99.90;;;;;;6248801;22;20675;-65
2023/05/10 00:14:52;;;;;;;10.52;8.07;;;15.40;99.90;;;;;;6232521;22;20599;-65
2023/05/10 00:17:19;;;;;;;10.55;9.35;;;15.40;99.90;;;;;;6248744;22;20758;-65
2023/05/10 00:19:46;;;;;;;10.30;9.18;;;15.40;99.90;;;;;;6246587;22;20695;-65
2023/05/10 00:22:12;;;;;;;10.48;9.35;;;15.40;99.90;;;;;;6250165;22;20203;-65
2023/05/10 00:24:39;;;;;;;15.02;9.55;;;15.30;99.90;;;;;;6220168;22;20396;-66
2023/05/10 00:27:07;;;;;;;10.88;9.57;;;15.30;99.90;;;;;;6238570;22;20176;-65
2023/05/10 00:29:34;;;;;;;11.50;9.23;;;15.30;99.90;;;;;;6233257;22;20202;-65
2023/05/10 00:32:01;;;;;;;11.95;9.55;;;15.40;99.90;;;;;;6247227;22;20858;-65
2023/05/10 00:34:28;;;;;;;12.43;9.77;;;15.40;99.90;;;;;;6247551;22;20176;-65
2023/05/10 00:36:54;;;;;;;12.68;10.25;;;15.40;99.90;;;;;;6243094;22;20176;-65
2023/05/10 00:39:21;;;;;;;13.70;10.45;;;15.40;99.90;;;;;;6230778;22;20184;-65
2023/05/10 00:41:48;;;;;;;13.18;10.90;;;15.50;99.90;;;;;;6242416;22;20172;-65
2023/05/10 00:44:18;;;;;;;14.45;10.75;;;15.50;99.90;;;;;;6249043;22;20172;-65
2023/05/10 00:46:45;;;;;;;13.10;10.52;;;15.60;99.90;;;;;;6227771;22;20556;-65
2023/05/10 00:49:12;;;;;;;11.48;9.73;;;15.50;99.90;;;;;;6247428;22;20218;-65
2023/05/10 00:51:39;;;;;;;13.57;10.32;;;15.50;99.90;;;;;;6234932;22;20326;-66
2023/05/10 00:54:06;;;;;;;13.45;10.50;;;15.50;99.90;;;;;;6249335;22;20199;-65
2023/05/10 00:56:33;;;;;;;11.27;9.75;;;15.50;99.90;;;;;;6219125;22;20215;-65
2023/05/10 00:59:01;;;;;;;13.32;10.48;;;15.40;99.90;;;;;;6239672;22;20514;-65
2023/05/10 01:01:29;;;;;;;11.43;9.73;;;15.40;99.90;;;;;;6227805;22;20174;-65
2023/05/10 01:03:56;;;;;;;11.70;9.73;;;15.40;99.90;;;;;;6245059;22;20741;-65
2023/05/10 01:06:23;;;;;;;13.38;10.60;;;15.40;99.90;;;;;;6237325;22;20176;-65
2023/05/10 01:08:50;;;;;;;12.48;10.82;;;15.40;99.90;;;;;;6238754;22;20663;-65
2023/05/10 01:11:17;;;;;;;12.63;10.15;;;15.40;99.90;;;;;;6221924;22;20199;-65
2023/05/10 01:13:48;;;;;;;13.15;10.10;;;15.40;99.90;;;;;;6236133;22;20184;-65
2023/05/10 01:16:15;;;;;;;15.65;10.95;;;15.40;99.90;;;;;;6228870;22;20639;-65
2023/05/10 01:18:45;;;;;;;15.13;10.60;;;15.30;99.90;;;;;;6235859;22;20787;-65
2023/05/10 01:21:20;;;;;;;10.20;9.07;;;15.30;99.90;;;;;;6245863;22;20176;-65
2023/05/10 01:24:18;;;;;;;11.43;9.38;;;15.30;99.90;;;;;;6243399;22;20419;-65
2023/05/10 01:27:17;;;;;;;10.68;8.63;;;15.30;99.90;;;;;;6226167;22;20544;-65
2023/05/10 01:30:29;;;;;;;9.70;8.50;;;15.20;99.90;;;;;;6236176;22;20176;-65
2023/05/10 01:33:03;;;;;;;10.40;7.95;;;15.00;99.90;;;;;;6232811;22;20510;-65
2023/05/10 01:35:41;;;;;;;10.23;7.47;;;14.90;99.90;;;;;;6244697;22;20199;-65
2023/05/10 01:38:17;;;;;;;7.28;6.45;;;14.80;99.90;;;;;;6235625;22;20168;-65
2023/05/10 01:40:53;;;;;;;7.70;6.60;;;14.70;99.90;;;;;;6242568;22;20171;-65
2023/05/10 01:43:27;;;;;;;7.03;6.13;;;14.60;99.90;;;;;;6236491;22;20436;-65
2023/05/10 01:46:04;;;;;;;7.32;6.00;;;14.50;99.90;;;;;;6239412;22;20493;-65
2023/05/10 01:48:33;;;;;;;7.15;5.88;;;14.40;99.90;;;;;;6239351;22;20179;-65
2023/05/10 01:51:00;;;;;;;6.10;5.50;;;14.40;99.90;;;;;;6242089;22;20655;-65
2023/05/10 01:53:28;;;;;;;7.65;5.80;;;14.40;99.90;;;;;;6237526;22;20183;-65
2023/05/10 01:55:57;;;;;;;6.25;5.30;;;14.30;99.90;;;;;;6242354;22;20172;-65
2023/05/10 01:58:28;;;;;;;6.35;4.70;;;14.30;99.90;;;;;;6222836;22;20187;-65
2023/05/10 02:00:55;;;;;;;5.30;4.70;;;14.20;99.90;;;;;;6235982;22;20202;-65
2023/05/10 02:03:24;;;;;;;9.52;4.82;;;14.10;99.90;;;;;;6240768;22;20183;-65
2023/05/10 02:05:54;;;;;;;13.23;5.18;;;14.20;99.90;;;;;;6245228;22;20177;-65
2023/05/10 02:08:22;;;;;;;6.82;4.43;;;14.10;99.90;;;;;;6248087;22;20172;-65
2023/05/10 02:10:51;;;;;;;5.25;4.40;;;14.00;99.90;;;;;;6247065;22;20176;-65
2023/05/10 02:13:19;;;;;;;6.65;4.60;;;14.00;99.90;;;;;;6219273;22;20591;-65
2023/05/10 02:15:49;;;;;;;4.90;4.32;;;14.00;99.90;;;;;;6245159;22;20606;-65
2023/05/10 02:18:16;;;;;;;4.80;4.38;;;13.90;99.90;;;;;;6220771;22;20624;-65
2023/05/10 02:20:46;;;;;;;30.75;14.35;;;13.90;99.90;;;;;;6238496;22;20199;-65
2023/05/10 02:23:17;;;;;;;99.18;34.03;;;13.80;99.90;;;;;;6240841;22;20203;-65
2023/05/10 02:25:45;;;;;;;194.60;56.85;;;13.80;99.90;;;;;;6247294;22;20627;-65
2023/05/10 02:28:13;;;;;;;143.02;44.30;;;13.80;99.90;;;;;;6224958;22;20393;-65
2023/05/10 02:30:40;;;;;;;63.78;21.92;;;13.80;99.90;;;;;;6240587;22;20639;-65
2023/05/10 02:33:07;;;;;;;36.70;13.85;;;13.80;99.90;;;;;;6235763;22;20230;-65
2023/05/10 02:35:35;;;;;;;16.20;7.90;;;13.70;99.90;;;;;;6233086;22;20570;-65
2023/05/10 02:38:03;;;;;;;49.20;20.27;;;13.70;99.90;;;;;;6240871;22;20378;-65
2023/05/10 02:40:32;;;;;;;109.80;35.78;;;13.70;99.90;;;;;;6247682;22;20278;-65
2023/05/10 02:43:02;;;;;;;128.35;39.40;;;13.60;99.90;;;;;;6223331;22;20743;-65
2023/05/10 02:45:31;;;;;;;54.28;18.27;;;13.60;99.90;;;;;;6239960;22;20176;-65
2023/05/10 02:47:59;;;;;;;46.85;18.15;;;13.60;99.90;;;;;;6233907;22;20176;-65
2023/05/10 02:50:28;;;;;;;21.05;8.30;;;13.50;99.90;;;;;;6240473;22;20511;-65
2023/05/10 02:53:00;;;;;;;16.55;7.88;;;13.50;99.90;;;;;;6235864;22;20200;-65
2023/05/10 02:55:32;;;;;;;15.57;6.47;;;13.40;99.90;;;;;;6248866;22;20172;-65
2023/05/10 02:58:02;;;;;;;8.50;4.45;;;13.40;99.90;;;;;;6245383;22;20562;-65
2023/05/10 03:00:29;;;;;;;5.13;4.10;;;13.40;99.90;;;;;;6221880;22;20259;-65
2023/05/10 03:02:56;;;;;;;5.00;3.50;;;13.30;99.90;;;;;;6232317;22;20262;-65
2023/05/10 03:05:23;;;;;;;4.35;3.90;;;13.40;99.90;;;;;;6239188;22;20709;-65
2023/05/10 03:07:50;;;;;;;5.32;3.80;;;13.30;99.90;;;;;;6238722;22;20797;-65
2023/05/10 03:10:17;;;;;;;5.28;3.60;;;13.20;99.90;;;;;;6246593;22;20172;-65
2023/05/10 03:13:01;;;;;;;4.70;3.90;;;13.20;99.90;;;;;;6246828;22;20215;-65
2023/05/10 03:15:38;;;;;;;4.20;3.70;;;13.20;99.90;;;;;;6230974;22;20176;-65
2023/05/10 03:18:08;;;;;;;6.22;4.15;;;13.10;99.90;;;;;;6224563;22;20222;-65
2023/05/10 03:20:37;;;;;;;5.72;4.10;;;13.10;99.90;;;;;;6240409;22;20172;-65
2023/05/10 03:23:13;;;;;;;6.32;3.83;;;13.10;99.90;;;;;;6233849;22;20342;-65
2023/05/10 03:25:40;;;;;;;5.20;4.18;;;13.00;99.90;;;;;;6248935;22;20230;-65
2023/05/10 03:28:08;;;;;;;4.53;3.95;;;13.00;99.90;;;;;;6242884;22;20206;-65
2023/05/10 03:30:36;;;;;;;4.22;3.67;;;12.90;99.90;;;;;;6246213;22;20642;-65
2023/05/10 03:33:06;;;;;;;5.13;4.10;;;12.90;99.90;;;;;;6224338;22;20704;-66
2023/05/10 03:35:33;;;;;;;4.43;4.03;;;12.80;99.90;;;;;;6237492;22;20238;-65
2023/05/10 03:38:00;;;;;;;5.55;4.13;;;12.90;99.90;;;;;;6225015;22;20585;-66
2023/05/10 03:40:28;;;;;;;8.35;3.60;;;13.00;99.90;;;;;;6246737;22;20178;-65
2023/05/10 03:42:55;;;;;;;4.28;3.70;;;13.00;99.90;;;;;;6243648;22;20572;-65
2023/05/10 03:45:22;;;;;;;5.80;3.70;;;13.00;99.90;;;;;;6237671;22;20179;-65
2023/05/10 03:47:50;;;;;;;4.22;3.53;;;12.90;99.90;;;;;;6225850;22;20231;-65
2023/05/10 03:50:18;;;;;;;5.22;3.90;;;12.90;99.90;;;;;;6232113;22;20504;-65
2023/05/10 03:52:44;;;;;;;4.13;3.72;;;12.90;99.90;;;;;;6232024;22;20230;-65
2023/05/10 03:55:11;;;;;;;11.32;6.75;;;12.90;99.90;;;;;;6247860;22;20172;-65
2023/05/10 03:57:38;;;;;;;31.02;12.10;;;12.90;99.90;;;;;;6242395;22;20434;-66
2023/05/10 04:00:06;;;;;;;30.65;10.43;;;12.80;99.90;;;;;;6249641;22;20172;-65
2023/05/10 04:02:33;;;;;;;39.40;16.67;;;12.80;99.90;;;;;;6232040;22;20184;-65
2023/05/10 04:05:01;;;;;;;12.52;4.82;;;12.90;99.90;;;;;;6241648;22;20503;-65
2023/05/10 04:07:27;;;;;;;6.63;4.38;;;12.80;99.90;;;;;;6233873;22;20379;-65
2023/05/10 04:09:54;;;;;;;5.07;3.88;;;12.90;99.90;;;;;;6247519;22;20177;-65
2023/05/10 04:12:21;;;;;;;3.88;3.50;;;12.80;99.90;;;;;;6238930;22;20207;-66
2023/05/10 04:14:48;;;;;;;7.43;4.10;;;12.70;99.90;;;;;;6244804;22;20231;-65
2023/05/10 04:17:15;;;;;;;4.22;3.58;;;12.70;99.90;;;;;;6221518;22;20180;-65
2023/05/10 04:19:41;;;;;;;10.00;4.05;;;12.70;99.90;;;;;;6249991;22;20175;-65
2023/05/10 04:22:10;;;;;;;6.10;3.80;;;12.70;99.90;;;;;;6240898;22;20200;-65
2023/05/10 04:24:37;;;;;;;7.20;3.63;;;12.60;99.90;;;;;;6249628;22;20196;-65
2023/05/10 04:27:03;;;;;;;7.32;3.60;;;12.60;99.90;;;;;;6246404;22;20204;-65
2023/05/10 04:29:30;;;;;;;7.95;4.07;;;12.60;99.90;;;;;;6242946;22;20176;-66
2023/05/10 04:31:57;;;;;;;5.63;3.83;;;12.50;99.90;;;;;;6244137;22;20176;-65
2023/05/10 04:34:24;;;;;;;4.40;3.90;;;12.40;99.90;;;;;;6238210;22;20181;-65
2023/05/10 04:36:51;;;;;;;5.35;4.28;;;12.50;99.90;;;;;;6243820;22;20176;-65
2023/05/10 04:39:19;;;;;;;5.13;3.97;;;12.50;99.90;;;;;;6238955;22;20234;-65
2023/05/10 04:41:45;;;;;;;4.90;4.00;;;12.60;99.90;;;;;;6248184;22;20643;-65
2023/05/10 04:44:12;;;;;;;6.38;4.32;;;12.60;99.90;;;;;;6245406;22;20196;-66
2023/05/10 04:46:39;;;;;;;4.35;3.95;;;12.70;99.90;;;;;;6228456;22;20192;-65
2023/05/10 04:49:06;;;;;;;4.50;4.10;;;12.70;99.90;;;;;;6223641;22;20259;-65
2023/05/10 04:51:33;;;;;;;5.30;4.53;;;12.80;99.90;;;;;;6232190;22;20270;-65
2023/05/10 04:54:00;;;;;;;5.60;4.63;;;12.70;99.90;;;;;;6233344;22;20593;-65
2023/05/10 04:56:28;;;;;;;5.60;4.50;;;12.70;99.90;;;;;;6238585;22;20195;-65
2023/05/10 04:58:55;;;;;;;5.57;4.55;;;12.70;99.90;;;;;;6242578;22;20283;-65
2023/05/10 05:01:22;;;;;;;8.05;4.47;;;12.70;99.90;;;;;;6241752;22;20259;-65
2023/05/10 05:03:49;;;;;;;6.18;4.53;;;12.70;99.90;;;;;;6224110;22;20722;-65
2023/05/10 05:06:16;;;;;;;7.38;4.90;;;12.70;99.90;;;;;;6233024;22;20746;-65
2023/05/10 05:08:43;;;;;;;5.93;4.50;;;12.60;99.90;;;;;;6222929;22;20196;-66
2023/05/10 05:11:10;;;;;;;4.88;4.35;;;12.70;99.90;;;;;;6242287;22;20730;-65
2023/05/10 05:13:38;;;;;;;5.30;4.65;;;12.70;99.90;;;;;;6236044;22;20211;-65
2023/05/10 05:16:06;;;;;;;6.22;4.35;;;12.60;99.90;;;;;;6234377;22;20250;-66
2023/05/10 05:18:33;;;;;;;6.60;4.40;;;12.60;99.90;;;;;;6234925;22;20386;-65
2023/05/10 05:20:59;;;;;;;6.20;4.65;;;12.50;99.90;;;;;;6226254;22;20196;-65
2023/05/10 05:23:26;;;;;;;7.47;4.70;;;12.40;99.90;;;;;;6227189;22;20200;-65
2023/05/10 05:25:53;;;;;;;6.45;4.60;;;12.50;99.90;;;;;;6234345;22;20196;-65
2023/05/10 05:28:20;;;;;;;6.22;4.40;;;12.40;99.90;;;;;;6222399;22;20201;-65
2023/05/10 05:30:48;;;;;;;11.60;4.53;;;12.50;99.90;;;;;;6244774;22;20193;-65
2023/05/10 05:33:15;;;;;;;5.82;4.93;;;12.40;99.90;;;;;;6249499;22;20231;-65
2023/05/10 05:35:47;;;;;;;8.13;4.72;;;12.50;99.90;;;;;;6233381;22;20398;-65
2023/05/10 05:38:14;;;;;;;4.68;4.18;;;12.40;99.90;;;;;;6249307;22;20196;-66
2023/05/10 05:40:40;;;;;;;5.95;4.63;;;12.50;99.90;;;;;;6233206;22;21103;-65
2023/05/10 05:43:07;;;;;;;5.78;4.15;;;12.40;99.90;;;;;;6244711;22;20514;-66
2023/05/10 05:45:34;;;;;;;6.63;4.72;;;12.30;99.90;;;;;;6246716;22;20268;-66
2023/05/10 05:48:02;;;;;;;6.30;4.72;;;12.40;99.90;;;;;;6249144;22;20198;-66
2023/05/10 05:50:29;;;;;;;6.63;4.80;;;12.40;99.90;;;;;;6245893;22;20221;-66
2023/05/10 05:52:56;;;;;;;4.88;3.92;;;12.50;99.90;;;;;;6229897;22;20503;-66
2023/05/10 05:55:23;;;;;;;8.25;5.43;;;12.50;99.90;;;;;;6238213;22;20200;-66
2023/05/10 05:57:50;;;;;;;5.40;4.57;;;12.50;99.90;;;;;;6235893;22;20196;-66
2023/05/10 06:00:17;;;;;;;5.10;4.63;;;12.50;99.90;;;;;;6246722;22;20206;-66
2023/05/10 06:02:44;;;;;;;8.13;4.93;;;12.60;99.90;;;;;;6245727;22;20222;-66
2023/05/10 06:05:13;;;;;;;6.93;4.68;;;12.60;99.90;;;;;;6243852;22;20192;-66
2023/05/10 06:07:41;;;;;;;5.63;4.93;;;12.70;99.90;;;;;;6220464;22;20406;-66
2023/05/10 06:10:09;;;;;;;11.13;5.38;;;12.70;99.90;;;;;;6249815;22;20196;-66
2023/05/10 06:12:35;;;;;;;10.25;5.50;;;12.70;99.90;;;;;;6224173;22;20200;-66
2023/05/10 06:15:02;;;;;;;8.50;5.22;;;12.80;99.90;;;;;;6236933;22;20191;-66
2023/05/10 06:17:29;;;;;;;6.95;4.93;;;12.90;99.90;;;;;;6235042;22;20237;-67
2023/05/10 06:19:57;;;;;;;7.07;5.43;;;12.90;99.90;;;;;;6248810;22;20251;-66
2023/05/10 06:22:25;;;;;;;6.97;5.60;;;12.90;99.90;;;;;;6226165;22;20196;-67
2023/05/10 06:24:52;;;;;;;6.93;5.53;;;13.00;99.90;;;;;;6236047;22;20172;-67
2023/05/10 06:27:19;;;;;;;8.25;5.20;;;13.00;99.90;;;;;;6233312;22;20179;-67
2023/05/10 06:29:46;;;;;;;7.65;5.75;;;13.00;99.90;;;;;;6238527;22;20460;-67
2023/05/10 06:32:12;;;;;;;7.30;5.78;;;13.00;99.90;;;;;;6244827;22;20833;-66
2023/05/10 06:34:39;;;;;;;10.15;5.50;;;12.90;99.90;;;;;;6241984;22;21012;-66
2023/05/10 06:37:06;;;;;;;7.15;5.53;;;13.00;99.90;;;;;;6253847;22;20258;-66
2023/05/10 06:39:34;;;;;;;6.22;5.63;;;13.00;99.90;;;;;;6225606;22;20744;-67
2023/05/10 06:42:02;;;;;;;10.82;6.40;;;13.00;99.90;;;;;;6241795;22;20180;-67
2023/05/10 06:44:29;;;;;;;7.57;6.15;;;13.10;99.90;;;;;;6235208;22;20230;-67
2023/05/10 06:46:56;;;;;;;7.18;6.47;;;13.10;99.90;;;;;;6234711;22;20172;-67
2023/05/10 06:49:22;;;;;;;7.88;5.68;;;13.10;99.90;;;;;;6241348;22;20548;-67
2023/05/10 06:51:49;;;;;;;8.48;5.80;;;13.10;99.90;;;;;;6233844;22;20226;-67
2023/05/10 06:54:16;;;;;;;8.25;6.35;;;13.20;99.90;;;;;;6232218;22;20230;-67
2023/05/10 06:56:44;;;;;;;8.02;6.28;;;13.20;99.90;;;;;;6240498;22;20179;-67
2023/05/10 06:59:13;;;;;;;7.88;6.80;;;13.30;99.90;;;;;;6242705;22;20699;-67
2023/05/10 07:01:40;;;;;;;8.35;6.82;;;13.30;99.90;;;;;;6245175;22;20952;-67
2023/05/10 07:04:07;;;;;;;6.90;6.20;;;13.40;99.90;;;;;;6248553;22;20176;-67
2023/05/10 07:06:34;;;;;;;7.22;5.15;;;13.40;99.90;;;;;;6248175;22;20172;-67
2023/05/10 07:09:01;;;;;;;4.07;3.53;;;13.50;99.90;;;;;;6248615;22;20604;-67
2023/05/10 07:11:28;;;;;;;3.33;2.70;;;13.60;99.90;;;;;;6232740;22;20176;-67
2023/05/10 07:13:56;;;;;;;2.90;2.58;;;13.70;99.90;;;;;;6231592;22;20507;-67
2023/05/10 07:16:22;;;;;;;3.22;2.88;;;13.80;99.90;;;;;;6239679;22;20175;-67
2023/05/10 07:18:50;;;;;;;2.95;2.63;;;13.80;99.90;;;;;;6243879;22;20179;-67
2023/05/10 07:21:17;;;;;;;3.45;2.80;;;13.90;99.90;;;;;;6238388;22;20183;-67
2023/05/10 07:23:43;;;;;;;5.25;2.92;;;13.90;99.90;;;;;;6247654;22;20497;-67
2023/05/10 07:26:11;;;;;;;3.25;2.95;;;13.90;99.90;;;;;;6233301;22;20176;-67
2023/05/10 07:28:38;;;;;;;3.55;2.80;;;14.00;99.90;;;;;;6239348;22;20176;-67
2023/05/10 07:31:06;;;;;;;2.88;2.58;;;14.00;99.90;;;;;;6242746;22;20259;-67
2023/05/10 07:33:33;;;;;;;2.97;2.67;;;14.00;99.90;;;;;;6246128;22;20204;-67
2023/05/10 07:36:00;;;;;;;3.88;3.10;;;14.00;99.90;;;;;;6249361;22;20283;-67
2023/05/10 07:38:26;;;;;;;3.63;3.33;;;14.00;99.90;;;;;;6244552;22;20186;-67
2023/05/10 07:40:53;;;;;;;3.53;2.78;;;14.10;99.90;;;;;;6229988;22;20406;-67
2023/05/10 07:43:20;;;;;;;4.03;3.63;;;14.10;99.90;;;;;;6244663;22;20176;-67
2023/05/10 07:45:47;;;;;;;4.43;3.28;;;14.10;99.90;;;;;;6239973;22;20176;-67
2023/05/10 07:48:15;;;;;;;4.07;3.67;;;14.10;99.90;;;;;;6252388;22;20172;-67
2023/05/10 07:50:42;;;;;;;3.90;3.42;;;14.10;99.90;;;;;;6245826;22;20199;-68
2023/05/10 07:53:08;;;;;;;4.85;4.03;;;14.20;99.90;;;;;;6250478;22;20200;-68
2023/05/10 07:55:35;;;;;;;6.38;4.20;;;14.30;99.90;;;;;;6247164;22;20179;-68
2023/05/10 07:58:02;;;;;;;5.22;3.67;;;14.20;99.90;;;;;;6221232;22;20561;-68
2023/05/10 08:00:29;;;;;;;13.23;5.72;;;14.20;99.90;;;;;;6241865;22;20266;-68
2023/05/10 08:02:56;;;;;;;6.47;3.75;;;14.20;99.90;;;;;;6244527;22;20503;-68
2023/05/10 08:05:24;;;;;;;5.93;4.05;;;14.30;99.90;;;;;;6249056;22;20175;-68
2023/05/10 08:07:51;;;;;;;4.53;3.78;;;14.40;99.90;;;;;;6243351;22;20384;-68
2023/05/10 08:10:18;;;;;;;5.38;4.13;;;14.40;99.90;;;;;;6249200;22;20187;-68
2023/05/10 08:12:44;;;;;;;5.90;4.10;;;14.40;99.90;;;;;;6229917;22;20183;-68
2023/05/10 08:15:11;;;;;;;5.47;4.10;;;14.50;99.90;;;;;;6244175;22;20203;-68
2023/05/10 08:17:39;;;;;;;4.65;3.92;;;14.50;99.90;;;;;;6248348;22;20179;-68
2023/05/10 08:20:07;;;;;;;4.95;4.45;;;14.50;99.90;;;;;;6248238;22;20854;-68
2023/05/10 08:22:35;;;;;;;5.05;4.22;;;14.50;99.90;;;;;;6247109;22;20583;-68
2023/05/10 08:25:02;;;;;;;5.38;4.18;;;14.60;99.90;;;;;;6248622;22;20381;-68
2023/05/10 08:27:29;;;;;;;8.48;4.20;;;14.60;99.90;;;;;;6232228;22;20176;-68
2023/05/10 08:29:56;;;;;;;4.18;3.78;;;14.60;99.90;;;;;;6248152;22;20573;-68
2023/05/10 08:32:22;;;;;;;4.00;3.40;;;14.60;99.90;;;;;;6243836;22;20172;-68
2023/05/10 08:34:49;;;;;;;3.85;3.45;;;14.50;99.90;;;;;;6247710;22;20208;-68
2023/05/10 08:37:16;;;;;;;6.63;3.90;;;14.40;99.90;;;;;;6252757;22;20172;-68
2023/05/10 08:39:45;;;;;;;5.45;4.05;;;14.50;99.90;;;;;;6249075;22;20179;-68
2023/05/10 08:42:13;;;;;;;5.05;3.28;;;14.60;99.90;;;;;;6252873;22;20259;-68
2023/05/10 08:44:40;;;;;;;4.55;3.38;;;14.70;99.90;;;;;;6231910;22;20180;-68
2023/05/10 08:47:07;;;;;;;3.85;3.45;;;14.60;99.90;;;;;;6243742;22;20275;-68
2023/05/10 08:49:34;;;;;;;4.35;3.38;;;14.70;99.90;;;;;;6251505;22;20175;-68
2023/05/10 08:52:05;;;;;;;5.07;3.67;;;14.80;99.90;;;;;;6250961;22;20414;-68
2023/05/10 08:54:33;;;;;;;4.05;3.13;;;14.90;99.90;;;;;;6251864;22;20687;-68
2023/05/10 08:57:02;;;;;;;3.33;2.63;;;15.00;99.90;;;;;;6250846;22;20180;-68
2023/05/10 08:59:29;;;;;;;2.67;2.47;;;15.00;99.90;;;;;;6234746;22;20176;-68
2023/05/10 09:01:58;;;;;;;3.63;3.03;;;14.90;99.90;;;;;;6237190;22;20348;-68
2023/05/10 09:04:25;;;;;;;4.97;2.88;;;14.90;99.90;;;;;;6250560;22;20173;-68
2023/05/10 09:06:52;;;;;;;3.38;2.50;;;15.00;99.90;;;;;;6248162;22;20364;-68
2023/05/10 09:09:20;;;;;;;3.03;2.72;;;14.90;99.90;;;;;;6249926;22;20930;-68
2023/05/10 09:11:47;;;;;;;2.80;2.58;;;14.90;99.90;;;;;;6235682;22;20777;-68
2023/05/10 09:14:17;;;;;;;2.80;2.60;;;15.00;99.90;;;;;;6226849;22;20678;-68
2023/05/10 09:16:44;;;;;;;2.50;2.20;;;15.00;99.90;;;;;;6249249;22;20180;-68
2023/05/10 09:19:11;;;;;;;2.50;2.05;;;15.00;99.90;;;;;;6245889;22;20179;-68
2023/05/10 09:21:38;;;;;;;2.17;1.98;;;15.00;99.90;;;;;;6246035;22;20204;-68
2023/05/10 09:24:05;;;;;;;1.77;1.63;;;15.00;99.90;;;;;;6251768;22;20642;-68
2023/05/10 09:26:33;;;;;;;1.67;1.58;;;14.90;99.90;;;;;;6248491;22;20176;-68
2023/05/10 09:29:02;;;;;;;6.63;1.77;;;14.90;99.90;;;;;;6250930;22;20185;-68
2023/05/10 09:31:46;;;;;;;2.38;2.10;;;15.00;99.90;;;;;;6231450;22;20183;-68
2023/05/10 09:34:17;;;;;;;1.92;1.75;;;15.10;99.90;;;;;;6243983;22;20270;-68
2023/05/10 09:36:55;;;;;;;3.53;2.75;;;15.10;99.90;;;;;;6248369;22;20443;-68
2023/05/10 09:39:21;;;;;;;2.50;2.20;;;15.30;99.90;;;;;;6251180;22;20722;-68
2023/05/10 09:41:48;;;;;;;2.38;1.50;;;15.20;99.90;;;;;;6246905;22;20382;-68
2023/05/10 09:44:18;;;;;;;2.25;1.50;;;15.20;99.90;;;;;;6252277;22;20226;-68
2023/05/10 09:46:52;;;;;;;2.25;1.30;;;15.10;99.90;;;;;;6232124;22;20181;-68
2023/05/10 09:49:19;;;;;;;2.75;1.88;;;15.20;99.90;;;;;;6239815;22;20635;-68
2023/05/10 09:51:46;;;;;;;1.65;1.40;;;15.30;99.90;;;;;;6248530;22;20584;-68
2023/05/10 09:54:14;;;;;;;1.70;1.40;;;15.30;99.90;;;;;;6248363;22;20883;-68
2023/05/10 09:56:41;;;;;;;2.13;1.25;;;15.30;99.90;;;;;;6247793;22;20662;-68
2023/05/10 09:59:12;;;;;;;1.55;1.45;;;15.30;99.90;;;;;;6250623;22;20176;-68
2023/05/10 10:01:40;;;;;;;2.05;1.55;;;15.20;99.90;;;;;;6228657;22;20187;-68
2023/05/10 10:04:10;;;;;;;1.92;1.55;;;15.10;99.90;;;;;;6242122;22;20230;-68
2023/05/10 10:06:38;;;;;;;2.70;1.50;;;15.10;99.90;;;;;;6244703;22;20698;-68
2023/05/10 10:09:05;;;;;;;1.83;1.67;;;15.10;99.90;;;;;;6249783;22;20172;-68
2023/05/10 10:11:32;;;;;;;5.28;1.95;;;15.10;99.90;;;;;;6248856;22;20204;-68
2023/05/10 10:13:59;;;;;;;2.65;1.80;;;15.10;99.90;;;;;;6252980;22;20196;-68
2023/05/10 10:16:27;;;;;;;2.03;1.90;;;15.10;99.90;;;;;;6239021;22;20402;-68
2023/05/10 10:18:55;;;;;;;2.35;1.80;;;15.00;99.90;;;;;;6237215;22;20458;-68
2023/05/10 10:21:23;;;;;;;1.70;1.60;;;15.10;99.90;;;;;;6250651;22;20172;-67
2023/05/10 10:23:50;;;;;;;2.85;1.85;;;15.00;99.90;;;;;;6247915;22;20180;-68
2023/05/10 10:26:18;;;;;;;4.13;2.25;;;15.10;99.90;;;;;;6252745;22;20176;-68
2023/05/10 10:28:52;;;;;;;2.38;1.75;;;15.20;99.90;;;;;;6248453;22;20654;-68
2023/05/10 10:31:28;;;;;;;3.53;2.08;;;15.20;99.90;;;;;;6250256;22;20175;-68
2023/05/10 10:34:02;;;;;;;2.10;1.90;;;15.20;99.90;;;;;;6232884;22;20175;-68
2023/05/10 10:36:33;;;;;;;2.22;2.03;;;15.20;99.90;;;;;;6236016;22;20184;-68
2023/05/10 10:39:01;;;;;;;2.55;2.30;;;15.30;99.90;;;;;;6251204;22;20222;-68
2023/05/10 10:41:33;;;;;;;2.47;2.28;;;15.40;99.90;;;;;;6248226;22;20178;-68
2023/05/10 10:44:25;;;;;;;2.40;2.20;;;15.50;99.90;;;;;;6246010;22;20171;-68
2023/05/10 10:47:05;;;;;;;4.00;2.85;;;15.70;99.90;;;;;;6239151;22;20400;-68
2023/05/10 10:49:33;;;;;;;3.20;2.90;;;15.80;99.90;;;;;;6225274;22;20176;-68
2023/05/10 10:52:26;;;;;;;4.72;3.22;;;15.80;99.90;;;;;;6244189;22;20184;-68
2023/05/10 10:54:58;;;;;;;2.55;2.00;;;15.90;99.90;;;;;;6249877;22;20875;-68
2023/05/10 10:57:26;;;;;;;3.35;2.00;;;16.00;99.90;;;;;;6245714;22;20176;-68
2023/05/10 10:59:55;;;;;;;3.97;2.20;;;16.10;99.90;;;;;;6246506;22;20340;-68
2023/05/10 11:02:43;;;;;;;3.58;2.15;;;16.10;99.90;;;;;;6250842;22;20255;-68
2023/05/10 11:05:25;;;;;;;2.95;2.53;;;15.90;99.90;;;;;;6234564;22;20179;-68
2023/05/10 11:07:54;;;;;;;2.50;2.30;;;15.90;97.40;;;;;;6243189;22;20405;-68
2023/05/10 11:10:21;;;;;;;2.45;2.17;;;15.90;97.50;;;;;;6249332;22;20662;-68
2023/05/10 11:13:01;;;;;;;3.70;2.22;;;15.80;99.90;;;;;;6249034;22;20361;-68
2023/05/10 11:15:32;;;;;;;2.03;1.65;;;15.80;99.90;;;;;;6249203;22;20211;-68
2023/05/10 11:17:59;;;;;;;1.60;1.50;;;15.70;99.90;;;;;;6251414;22;20612;-68
2023/05/10 11:20:33;;;;;;;1.73;1.25;;;15.70;99.90;;;;;;6232000;22;20662;-68
2023/05/10 11:23:15;;;;;;;1.75;1.52;;;15.60;99.90;;;;;;6243931;22;20282;-68
2023/05/10 11:25:43;;;;;;;2.85;1.20;;;15.70;99.90;;;;;;6247649;22;20713;-68
2023/05/10 11:28:10;;;;;;;2.25;1.67;;;15.70;99.90;;;;;;6252510;22;20226;-68
2023/05/10 11:30:39;;;;;;;1.40;1.30;;;15.70;99.90;;;;;;6243464;22;20416;-68
2023/05/10 11:33:06;;;;;;;0.90;0.90;;;15.60;99.90;;;;;;6249109;22;20682;-68
2023/05/10 11:35:38;;;;;;;0.47;0.40;;;15.50;99.90;;;;;;6228406;22;20202;-68
2023/05/10 11:38:08;;;;;;;0.55;0.50;;;15.30;99.90;;;;;;6239712;22;20571;-68
2023/05/10 11:40:35;;;;;;;0.40;0.40;;;15.30;99.90;;;;;;6245116;22;20482;-68
2023/05/10 11:43:02;;;;;;;0.40;0.40;;;15.30;99.90;;;;;;6249503;22;20178;-68
2023/05/10 11:45:31;;;;;;;0.43;0.43;;;15.20;99.90;;;;;;6247225;22;20196;-68
2023/05/10 11:47:58;;;;;;;0.45;0.43;;;15.30;99.90;;;;;;6248776;22;20174;-68
2023/05/10 11:50:25;;;;;;;0.50;0.50;;;15.40;99.90;;;;;;6230597;22;20176;-68
2023/05/10 11:52:52;;;;;;;0.82;0.60;;;15.50;99.90;;;;;;6247170;22;20412;-68
2023/05/10 11:55:21;;;;;;;1.05;0.65;;;15.60;99.90;;;;;;6241513;22;20204;-68
2023/05/10 11:57:48;;;;;;;0.50;0.50;;;15.70;99.90;;;;;;6246410;22;20275;-68
2023/05/10 12:00:15;;;;;;;0.73;0.60;;;15.70;99.90;;;;;;6250029;22;20504;-68
2023/05/10 12:02:42;;;;;;;1.55;0.73;;;15.70;99.90;;;;;;6244655;22;20531;-68
2023/05/10 12:05:10;;;;;;;0.60;0.60;;;15.60;99.90;;;;;;6232555;22;20327;-68
2023/05/10 12:07:37;;;;;;;0.50;0.50;;;15.50;99.90;;;;;;6246885;22;20172;-68
2023/05/10 12:10:06;;;;;;;0.30;0.30;;;15.30;99.90;;;;;;6239896;22;20176;-68
2023/05/10 12:12:38;;;;;;;0.45;0.45;;;15.30;99.90;;;;;;6246522;22;20172;-68
2023/05/10 12:15:11;;;;;;;2.75;0.52;;;15.40;99.90;;;;;;6252117;22;20483;-68
2023/05/10 12:17:39;;;;;;;0.70;0.70;;;15.60;99.90;;;;;;6246624;22;20176;-68
2023/05/10 12:20:16;;;;;;;3.03;0.52;;;15.70;99.90;;;;;;6252141;22;20172;-68
2023/05/10 12:22:45;;;;;;;0.70;0.70;;;15.60;99.90;;;;;;6231953;22;20702;-68
2023/05/10 12:25:12;;;;;;;0.77;0.77;;;15.40;99.90;;;;;;6241254;22;20546;-68
2023/05/10 12:27:40;;;;;;;1.52;1.42;;;15.30;99.90;;;;;;6244564;22;20497;-68
2023/05/10 12:30:08;;;;;;;0.95;0.95;;;15.30;99.90;;;;;;6250671;22;20176;-68
2023/05/10 12:32:39;;;;;;;0.90;0.90;;;15.40;99.90;;;;;;6243145;22;20495;-68
2023/05/10 12:35:07;;;;;;;3.97;1.05;;;15.40;99.90;;;;;;6247579;22;20269;-68
2023/05/10 12:37:35;;;;;;;0.65;0.65;;;15.40;99.90;;;;;;6228931;22;20195;-68
2023/05/10 12:40:04;;;;;;;0.90;0.90;;;15.50;99.90;;;;;;6243268;22;20260;-68
2023/05/10 12:42:32;;;;;;;1.08;0.98;;;15.40;99.90;;;;;;6247345;22;20268;-68
2023/05/10 12:45:00;;;;;;;1.00;0.90;;;15.30;99.90;;;;;;6252694;22;20222;-68
2023/05/10 12:47:26;;;;;;;1.10;1.00;;;15.20;99.90;;;;;;6250384;22;20172;-68
2023/05/10 12:49:53;;;;;;;1.00;1.00;;;15.10;99.90;;;;;;6250482;22;20352;-68